createdAt,value
2023-05-21T00:01:57.888Z,67.86426
2023-05-21T00:03:58.547Z,68.11426
2023-05-21T00:05:57.857Z,68.12109
2023-05-21T00:07:57.670Z,68.19824
2023-05-21T00:11:22.472Z,67.9668
2023-05-21T00:13:22.596Z,68.9248
2023-05-21T00:15:22.560Z,68.95313
2023-05-21T00:17:22.504Z,68.82422
2023-05-21T00:19:22.600Z,69.06445
2023-05-21T00:21:22.522Z,68.62891
2023-05-21T00:23:22.481Z,68.58496
2023-05-21T00:25:42.223Z,68.71582
2023-05-21T00:27:42.205Z,68.40625
2023-05-21T00:29:44.577Z,68.75
2023-05-21T00:31:42.544Z,68.3252
2023-05-21T00:33:42.325Z,68.19727
2023-05-21T00:35:42.368Z,68.79492
2023-05-21T00:37:42.256Z,68.90527
2023-05-21T00:39:42.144Z,68.83105
2023-05-21T00:41:04.450Z,68.96191
2023-05-21T00:43:04.493Z,69.29688
2023-05-21T00:45:04.607Z,69.11816
2023-05-21T00:47:04.444Z,68.61328
2023-05-21T00:49:04.525Z,68.72754
2023-05-21T00:51:04.431Z,69.17676
2023-05-21T00:53:04.556Z,69.32227
2023-05-21T00:56:21.127Z,69.98242
2023-05-21T00:58:21.089Z,70.06543
2023-05-21T01:00:21.064Z,69.69629
2023-05-21T01:02:21.266Z,69.58203
2023-05-21T01:04:21.077Z,69.3418
2023-05-21T01:06:21.053Z,69.79199
2023-05-21T01:08:21.145Z,70.42578
2023-05-21T01:11:42.993Z,70.60156
2023-05-21T01:13:42.959Z,71.11914
2023-05-21T01:15:42.928Z,71.58594
2023-05-21T01:17:43.013Z,71.12305
2023-05-21T01:19:43.065Z,71.29395
2023-05-21T01:21:42.983Z,71.21973
2023-05-21T01:23:42.967Z,70.9873
2023-05-21T01:26:42.478Z,71.58203
2023-05-21T01:28:42.495Z,71.52344
2023-05-21T01:30:42.418Z,71.05078
2023-05-21T01:32:42.652Z,71.00781
2023-05-21T01:34:42.392Z,70.15918
2023-05-21T01:36:42.385Z,70.43457
2023-05-21T01:38:42.423Z,71.08984
2023-05-21T01:41:31.942Z,70.68652
2023-05-21T01:43:31.891Z,70.52734
2023-05-21T01:45:31.898Z,70.91797
2023-05-21T01:47:31.957Z,71.09668
2023-05-21T01:49:31.888Z,70.81641
2023-05-21T01:51:31.902Z,70.30469
2023-05-21T01:53:31.878Z,71.42188
2023-05-21T01:55:31.989Z,71.6875
2023-05-21T01:57:29.992Z,71.37207
2023-05-21T01:59:29.865Z,71.30664
2023-05-21T02:01:30.129Z,71.20215
2023-05-21T02:03:30.246Z,71.60742
2023-05-21T02:05:29.949Z,71.11914
2023-05-21T02:07:29.939Z,70.87598
2023-05-21T02:09:30.001Z,71.10938
2023-05-21T02:12:47.779Z,72.17676
2023-05-21T02:14:47.562Z,72.05762
2023-05-21T02:16:47.965Z,72.08105
2023-05-21T02:18:47.748Z,72.30664
2023-05-21T02:20:47.700Z,72.15332
2023-05-21T02:22:47.645Z,71.83594
2023-05-21T02:24:47.576Z,72.0166
2023-05-21T02:27:05.873Z,72.1377
2023-05-21T02:29:05.969Z,72.11816
2023-05-21T02:31:05.914Z,71.64551
2023-05-21T02:33:05.972Z,72.55566
2023-05-21T02:35:05.924Z,72.41602
2023-05-21T02:37:06.082Z,72.63086
2023-05-21T02:39:05.855Z,73.16797
2023-05-21T02:41:05.860Z,73.04297
2023-05-21T02:42:57.416Z,72.66504
2023-05-21T02:44:57.448Z,72.47852
2023-05-21T02:46:57.401Z,72.65918
2023-05-21T02:48:57.378Z,73.61133
2023-05-21T02:50:57.394Z,73.3291
2023-05-21T02:52:57.362Z,73.35645
2023-05-21T02:54:57.595Z,72.84766
2023-05-21T02:57:30.756Z,72.39844
2023-05-21T02:59:30.410Z,72.04785
2023-05-21T03:01:30.645Z,72.31641
2023-05-21T03:03:30.990Z,72.58594
2023-05-21T03:05:30.544Z,72.26855
2023-05-21T03:07:30.456Z,72.77148
2023-05-21T03:09:30.497Z,72.36328
2023-05-21T03:13:12.055Z,71.87402
2023-05-21T03:15:11.961Z,72.01953
2023-05-21T03:17:11.995Z,71.77637
2023-05-21T03:19:12.029Z,72.14355
2023-05-21T03:21:12.019Z,71.8623
2023-05-21T03:23:16.356Z,71.98535
2023-05-21T03:25:11.967Z,71.7959
2023-05-21T03:28:37.655Z,71.22949
2023-05-21T03:30:37.643Z,71.23828
2023-05-21T03:32:37.824Z,72.70898
2023-05-21T03:34:37.664Z,72.05078
2023-05-21T03:36:37.722Z,70.51563
2023-05-21T03:38:37.651Z,66.81738
2023-05-21T03:40:37.632Z,62.61523
2023-05-21T03:43:45.018Z,58.14355
2023-05-21T03:45:45.336Z,54.75684
2023-05-21T03:47:45.167Z,54.22363
2023-05-21T03:49:45.028Z,52.74512
2023-05-21T03:51:45.012Z,51.03809
2023-05-21T03:53:45.063Z,48.78809
2023-05-21T03:55:44.998Z,46.8584
2023-05-21T03:58:23.151Z,44.66602
2023-05-21T04:00:23.119Z,43.83008
2023-05-21T04:02:23.461Z,42.78711
2023-05-21T04:04:23.361Z,41.09863
2023-05-21T04:06:23.142Z,41.01953
2023-05-21T04:08:23.160Z,39.79199
2023-05-21T04:10:23.175Z,39.21387
2023-05-21T04:13:53.086Z,37.99902
2023-05-21T04:15:53.131Z,37.11719
2023-05-21T04:17:53.214Z,38.46973
2023-05-21T04:19:53.114Z,39.70508
2023-05-21T04:21:53.237Z,42.05078
2023-05-21T04:23:53.051Z,44.27148
2023-05-21T04:25:53.086Z,46.57031
2023-05-21T04:28:52.505Z,48.92871
2023-05-21T04:30:52.512Z,50.12793
2023-05-21T04:32:52.647Z,51.38086
2023-05-21T04:34:52.485Z,52.0293
2023-05-21T04:36:52.545Z,52.27344
2023-05-21T04:38:52.494Z,52.27637
2023-05-21T04:40:52.508Z,52.86426
2023-05-21T04:43:54.176Z,53.60254
2023-05-21T04:45:54.153Z,53.91406
2023-05-21T04:47:54.164Z,54.07227
2023-05-21T04:49:54.145Z,54.08203
2023-05-21T04:51:54.149Z,53.0127
2023-05-21T04:53:54.307Z,51.32813
2023-05-21T04:55:54.139Z,51.97949
2023-05-21T04:58:48.636Z,54.08984
2023-05-21T05:00:48.688Z,54.36816
2023-05-21T05:02:48.761Z,54.62695
2023-05-21T05:04:48.648Z,54.99707
2023-05-21T05:06:48.671Z,55.4209
2023-05-21T05:08:48.588Z,53.7168
2023-05-21T05:10:48.647Z,54.91016
2023-05-21T05:12:48.599Z,55.58398
2023-05-21T05:14:24.128Z,56.0752
2023-05-21T05:16:24.141Z,56.54199
2023-05-21T05:18:24.117Z,57.45898
2023-05-21T05:20:24.111Z,56.55664
2023-05-21T05:22:24.140Z,56.56348
2023-05-21T05:24:24.123Z,55.71875
2023-05-21T05:26:24.170Z,54.53125
2023-05-21T05:29:31.818Z,56.67188
2023-05-21T05:31:31.971Z,55.68066
2023-05-21T05:33:31.821Z,58.56445
2023-05-21T05:35:31.860Z,61.23145
2023-05-21T05:37:31.831Z,60.57617
2023-05-21T05:39:31.832Z,61.83594
2023-05-21T05:41:31.969Z,58.63672
2023-05-21T05:44:36.393Z,56.9668
2023-05-21T05:46:36.561Z,55.48535
2023-05-21T05:48:36.440Z,55.55859
2023-05-21T05:50:36.372Z,55.93164
2023-05-21T05:52:36.481Z,53.19434
2023-05-21T05:54:36.465Z,54.60938
2023-05-21T05:56:36.638Z,54.00195
2023-05-21T05:59:29.044Z,55.5332
2023-05-21T06:01:29.105Z,52.19238
2023-05-21T06:03:29.579Z,52.74707
2023-05-21T06:05:29.276Z,51.7793
2023-05-21T06:07:29.107Z,53.49121
2023-05-21T06:09:29.066Z,53
2023-05-21T06:11:29.068Z,53.3418
2023-05-21T06:13:29.499Z,53.71191
2023-05-21T06:14:41.049Z,53.97852
2023-05-21T06:16:40.733Z,54.27637
2023-05-21T06:18:40.702Z,54.42773
2023-05-21T06:20:40.647Z,54.78516
2023-05-21T06:22:40.717Z,54.99023
2023-05-21T06:24:40.704Z,54.59277
2023-05-21T06:26:40.641Z,55.02832
2023-05-21T06:28:40.612Z,55.07129
2023-05-21T06:29:59.085Z,55.12988
2023-05-21T06:31:59.408Z,55.0752
2023-05-21T06:33:59.621Z,54.58203
2023-05-21T06:35:58.996Z,54.08691
2023-05-21T06:37:59.033Z,53.49902
2023-05-21T06:39:59.334Z,53.18066
2023-05-21T06:41:59.367Z,56.19531
2023-05-21T06:45:48.438Z,56.60352
2023-05-21T06:47:48.118Z,55.95313
2023-05-21T06:49:47.988Z,55.66602
2023-05-21T06:51:47.978Z,55.04785
2023-05-21T06:53:48.015Z,55.93359
2023-05-21T06:55:47.962Z,54.03906
2023-05-21T06:57:48.055Z,53.08789
2023-05-21T07:00:04.610Z,51.87988
2023-05-21T07:02:05.192Z,53.24023
2023-05-21T07:04:04.591Z,53.66699
2023-05-21T07:06:04.582Z,53.00879
2023-05-21T07:08:04.583Z,52.56055
2023-05-21T07:10:04.660Z,52.76367
2023-05-21T07:12:04.561Z,52.2959
2023-05-21T07:14:04.461Z,51.6123
2023-05-21T07:15:46.003Z,50.2959
2023-05-21T07:17:46.079Z,52.07227
2023-05-21T07:19:46.082Z,52.09277
2023-05-21T07:21:45.900Z,50.07227
2023-05-21T07:23:45.821Z,50.19922
2023-05-21T07:25:45.844Z,50.01758
2023-05-21T07:27:45.925Z,52.67969
2023-05-21T07:30:59.159Z,49.07324
2023-05-21T07:32:59.144Z,50.68359
2023-05-21T07:34:59.032Z,51.08105
2023-05-21T07:36:58.990Z,51.27344
2023-05-21T07:38:58.953Z,52.40527
2023-05-21T07:40:59.049Z,48.62109
2023-05-21T07:42:59.047Z,42.87598
2023-05-21T07:46:16.935Z,46.98242
2023-05-21T07:48:16.826Z,46.16309
2023-05-21T07:50:16.753Z,43.28223
2023-05-21T07:52:16.792Z,46.16211
2023-05-21T07:54:16.820Z,44.64063
2023-05-21T07:56:16.727Z,45.87402
2023-05-21T07:58:16.650Z,46.31152
2023-05-21T08:01:02.862Z,44.65723
2023-05-21T08:03:03.460Z,43.87793
2023-05-21T08:05:03.431Z,44.41211
2023-05-21T08:07:03.389Z,43.16211
2023-05-21T08:09:03.149Z,44.27344
2023-05-21T08:11:03.279Z,45.75684
2023-05-21T08:13:03.112Z,45.09277
2023-05-21T08:16:22.545Z,45.51465
2023-05-21T08:18:22.423Z,46.98828
2023-05-21T08:20:22.501Z,44.09668
2023-05-21T08:22:22.568Z,45.21973
2023-05-21T08:24:22.385Z,45.77148
2023-05-21T08:26:22.332Z,45.3623
2023-05-21T08:28:22.240Z,45.5166
2023-05-21T08:31:04.655Z,43.88574
2023-05-21T08:33:04.764Z,46.03418
2023-05-21T08:35:04.703Z,46.35352
2023-05-21T08:37:04.691Z,46.49707
2023-05-21T08:39:04.620Z,47.67676
2023-05-21T08:41:04.664Z,48.12109
2023-05-21T08:43:04.672Z,47.15332
2023-05-21T08:45:04.656Z,47.8623
2023-05-21T08:46:58.487Z,47.46094
2023-05-21T08:48:58.491Z,47.93945
2023-05-21T08:50:58.566Z,47.5752
2023-05-21T08:52:58.595Z,47.42676
2023-05-21T08:54:58.719Z,47.25586
2023-05-21T08:56:58.555Z,46.7959
2023-05-21T08:58:58.563Z,45.71875
2023-05-21T09:02:03.964Z,45.97754
2023-05-21T09:06:03.866Z,44.37207
2023-05-21T09:08:03.965Z,44.25684
2023-05-21T09:10:04.085Z,43.78418
2023-05-21T09:12:03.926Z,44.75879
2023-05-21T09:14:03.935Z,44.02441
2023-05-21T09:16:34.271Z,42.4082
2023-05-21T09:18:34.223Z,40.97461
2023-05-21T09:20:34.242Z,43.1748
2023-05-21T09:22:34.236Z,42.1123
2023-05-21T09:24:36.743Z,42.81055
2023-05-21T09:26:34.235Z,42.51367
2023-05-21T09:28:34.272Z,42.90234
2023-05-21T09:30:36.638Z,42.6123
2023-05-21T09:32:00.167Z,42.61426
2023-05-21T09:34:00.199Z,43.49219
2023-05-21T09:36:00.111Z,42.85156
2023-05-21T09:38:00.050Z,42.69336
2023-05-21T09:40:00.224Z,42.46973
2023-05-21T09:42:00.108Z,43.78613
2023-05-21T09:44:00.146Z,43.90527
2023-05-21T09:47:28.351Z,42.79785
2023-05-21T09:49:28.697Z,42.28223
2023-05-21T09:51:28.277Z,43.6084
2023-05-21T09:53:28.211Z,44.34277
2023-05-21T09:55:28.292Z,41.83203
2023-05-21T09:57:28.248Z,42.875
2023-05-21T09:59:28.248Z,43.36035
2023-05-21T10:02:36.159Z,42.57813
2023-05-21T10:04:36.290Z,42.42383
2023-05-21T10:06:36.110Z,42.21582
2023-05-21T10:08:36.047Z,41.29102
2023-05-21T10:10:36.575Z,41.56934
2023-05-21T10:12:36.110Z,41.87793
2023-05-21T10:14:36.181Z,41.69922
2023-05-21T10:17:11.881Z,41.94727
2023-05-21T10:19:11.983Z,41.33301
2023-05-21T10:21:11.997Z,42.48633
2023-05-21T10:23:11.883Z,41.70117
2023-05-21T10:25:11.862Z,41.62402
2023-05-21T10:27:11.985Z,41.50293
2023-05-21T10:29:11.854Z,43.80762
2023-05-21T10:31:11.814Z,44.0293
2023-05-21T10:32:32.312Z,39.78711
2023-05-21T10:34:32.083Z,40.4707
2023-05-21T10:36:32.101Z,41.6582
2023-05-21T10:38:31.910Z,42.83398
2023-05-21T10:40:31.885Z,39.99219
2023-05-21T10:42:32.018Z,40.25293
2023-05-21T10:44:31.969Z,39.62793
2023-05-21T10:48:08.251Z,39.82715
2023-05-21T10:50:08.231Z,38.11523
2023-05-21T10:52:08.212Z,39.91992
2023-05-21T10:54:08.196Z,39.92773
2023-05-21T10:56:08.160Z,39.17578
2023-05-21T10:58:08.294Z,38.00488
2023-05-21T11:00:08.214Z,39.17383
2023-05-21T11:02:50.179Z,37.31836
2023-05-21T11:04:50.102Z,39.12793
2023-05-21T11:06:50.084Z,39.71094
2023-05-21T11:08:50.149Z,38.20801
2023-05-21T11:10:50.059Z,36.77246
2023-05-21T11:12:50.108Z,38.79102
2023-05-21T11:14:50.189Z,38.05371
2023-05-21T11:18:23.169Z,38.81738
2023-05-21T11:20:23.562Z,39.66992
2023-05-21T11:22:23.212Z,38.2666
2023-05-21T11:24:23.224Z,37.87402
2023-05-21T11:26:23.166Z,38.25684
2023-05-21T11:28:23.284Z,37.76855
2023-05-21T11:30:23.197Z,39.19238
2023-05-21T11:33:13.441Z,39.1875
2023-05-21T11:35:13.362Z,37.86914
2023-05-21T11:37:13.323Z,39.2334
2023-05-21T11:39:13.377Z,38.15527
2023-05-21T11:41:13.439Z,37.61133
2023-05-21T11:43:13.297Z,37.94531
2023-05-21T11:45:13.344Z,38.75
2023-05-21T11:48:46.504Z,38.74316
2023-05-21T11:50:46.520Z,39.28613
2023-05-21T11:52:46.481Z,38.94336
2023-05-21T11:54:46.763Z,38.5791
2023-05-21T11:56:46.451Z,40.34668
2023-05-21T11:58:46.528Z,39.61328
2023-05-21T12:00:46.463Z,40.05176
2023-05-21T12:03:45.544Z,37.76074
2023-05-21T12:05:45.246Z,39.04883
2023-05-21T12:07:45.177Z,38.8623
2023-05-21T12:09:45.204Z,38.44043
2023-05-21T12:11:45.302Z,38.55273
2023-05-21T12:13:45.198Z,38.96094
2023-05-21T12:15:45.212Z,37.9541
2023-05-21T12:19:29.425Z,38.16113
2023-05-21T12:21:29.283Z,38.125
2023-05-21T12:23:29.162Z,38.47949
2023-05-21T12:25:29.184Z,38.76465
2023-05-21T12:27:29.288Z,40.20898
2023-05-21T12:29:29.522Z,37.41309
2023-05-21T12:31:29.447Z,39.51172
2023-05-21T12:34:15.020Z,38.40723
2023-05-21T12:36:14.775Z,39.96094
2023-05-21T12:38:14.818Z,38.07227
2023-05-21T12:40:14.811Z,39.33887
2023-05-21T12:42:14.736Z,38.07422
2023-05-21T12:44:14.794Z,38.46777
2023-05-21T12:46:14.842Z,38.40918
2023-05-21T12:49:46.057Z,38.48535
2023-05-21T12:51:45.959Z,39.21191
2023-05-21T12:53:46.091Z,37.8291
2023-05-21T12:55:46.104Z,39.60742
2023-05-21T12:57:46.010Z,38.65332
2023-05-21T12:59:46.002Z,36.94629
2023-05-21T13:01:45.993Z,36.2373
2023-05-21T13:04:46.381Z,38.15039
2023-05-21T13:06:46.376Z,39.68848
2023-05-21T13:08:46.425Z,38.52246
2023-05-21T13:10:46.404Z,37.63867
2023-05-21T13:12:46.391Z,37.91992
2023-05-21T13:14:46.436Z,39.17969
2023-05-21T13:16:46.350Z,38.78613
2023-05-21T13:20:02.716Z,39.89355
2023-05-21T13:22:02.646Z,40.64258
2023-05-21T13:24:02.657Z,38.58301
2023-05-21T13:26:02.751Z,39.45801
2023-05-21T13:28:02.615Z,37.2998
2023-05-21T13:30:02.661Z,38.77051
2023-05-21T13:32:02.615Z,37.88086
2023-05-21T13:34:55.645Z,40.37109
2023-05-21T13:36:55.683Z,38.61328
2023-05-21T13:38:55.693Z,39.20215
2023-05-21T13:40:55.625Z,38.7793
2023-05-21T13:42:55.710Z,37.04199
2023-05-21T13:44:55.704Z,38.0791
2023-05-21T13:46:55.662Z,36.58691
2023-05-21T13:49:44.121Z,38.19629
2023-05-21T13:51:44.092Z,36.38672
2023-05-21T13:53:44.143Z,36.92578
2023-05-21T13:55:44.123Z,38.33691
2023-05-21T13:57:44.175Z,37.78809
2023-05-21T13:59:44.192Z,37.90918
2023-05-21T14:01:44.225Z,37.76074
2023-05-21T14:05:27.729Z,38.18555
2023-05-21T14:07:27.737Z,38.60938
2023-05-21T14:09:27.699Z,39.73535
2023-05-21T14:11:27.690Z,38.65723
2023-05-21T14:13:27.774Z,38.41016
2023-05-21T14:15:27.834Z,38.44141
2023-05-21T14:17:27.765Z,38.11328
2023-05-21T14:19:55.950Z,37.7041
2023-05-21T14:21:55.892Z,39.02832
2023-05-21T14:23:55.964Z,38.21973
2023-05-21T14:25:55.982Z,37.36914
2023-05-21T14:27:55.887Z,39.02832
2023-05-21T14:29:55.983Z,38.22754
2023-05-21T14:31:56.097Z,38.93066
2023-05-21T14:33:55.854Z,38.77148
2023-05-21T14:35:24.150Z,39.89551
2023-05-21T14:37:26.988Z,40.27539
2023-05-21T14:39:24.310Z,39.7666
2023-05-21T14:41:24.252Z,39.86816
2023-05-21T14:43:24.085Z,39.21191
2023-05-21T14:45:24.070Z,38.33203
2023-05-21T14:47:24.140Z,39.19727
2023-05-21T14:50:13.119Z,37.92285
2023-05-21T14:52:12.869Z,39.3125
2023-05-21T14:54:13.060Z,38.77051
2023-05-21T14:56:13.014Z,38.96094
2023-05-21T14:58:13.027Z,41.54883
2023-05-21T15:00:12.998Z,39.71484
2023-05-21T15:02:13.128Z,40.2373
2023-05-21T15:04:13.292Z,40.38184
2023-05-21T15:06:07.418Z,40.63086
2023-05-21T15:08:07.377Z,41.18945
2023-05-21T15:10:07.339Z,41.48145
2023-05-21T15:12:07.326Z,40.42871
2023-05-21T15:14:07.530Z,40.3291
2023-05-21T15:16:07.437Z,39.6582
2023-05-21T15:18:07.636Z,41.1875
2023-05-21T15:21:16.706Z,39.44922
2023-05-21T15:23:18.334Z,39.40527
2023-05-21T15:25:16.859Z,40.2373
2023-05-21T15:27:16.367Z,40.40234
2023-05-21T15:29:16.352Z,39.50293
2023-05-21T15:31:16.341Z,40.99316
2023-05-21T15:33:16.348Z,40.15625
2023-05-21T15:36:06.155Z,40.60645
2023-05-21T15:38:06.333Z,40.91602
2023-05-21T15:40:06.210Z,41.72754
2023-05-21T15:42:06.143Z,40.6123
2023-05-21T15:44:06.253Z,40.88281
2023-05-21T15:46:06.262Z,40.5498
2023-05-21T15:48:06.314Z,39.93457
2023-05-21T15:51:38.099Z,39.56934
2023-05-21T15:53:38.282Z,41.63965
2023-05-21T15:55:38.981Z,41.29492
2023-05-21T15:57:38.356Z,41.04492
2023-05-21T15:59:38.355Z,42.32129
2023-05-21T16:01:38.212Z,41.80664
2023-05-21T16:03:38.220Z,42.06543
2023-05-21T16:06:55.689Z,42.20703
2023-05-21T16:08:55.833Z,42.46777
2023-05-21T16:10:55.672Z,41.80078
2023-05-21T16:12:55.649Z,42.61914
2023-05-21T16:14:55.715Z,42.71094
2023-05-21T16:16:55.767Z,42.98242
2023-05-21T16:18:55.741Z,43.97363
2023-05-21T16:21:57.807Z,43.62891
2023-05-21T16:23:57.427Z,44.06641
2023-05-21T16:25:57.449Z,44.66113
2023-05-21T16:27:57.339Z,45.2666
2023-05-21T16:29:57.365Z,45.61621
2023-05-21T16:31:57.596Z,46.21973
2023-05-21T16:33:57.375Z,46.12012
2023-05-21T16:36:32.970Z,46.62598
2023-05-21T16:38:32.950Z,46.52344
2023-05-21T16:40:32.878Z,46.46094
2023-05-21T16:42:33.048Z,46.96289
2023-05-21T16:44:32.934Z,47.43457
2023-05-21T16:46:32.941Z,46.41992
2023-05-21T16:48:32.725Z,46.0957
2023-05-21T16:52:25.587Z,45.70703
2023-05-21T16:54:25.575Z,45.65723
2023-05-21T16:56:25.532Z,47.22266
2023-05-21T16:58:25.619Z,46.96777
2023-05-21T17:00:25.603Z,46.78906
2023-05-21T17:02:25.737Z,47.3623
2023-05-21T17:04:25.904Z,46.55273
2023-05-21T17:07:14.520Z,47.90527
2023-05-21T17:09:14.857Z,48.20703
2023-05-21T17:11:14.443Z,47.82617
2023-05-21T17:13:23.179Z,48.06152
2023-05-21T17:15:14.650Z,47.96582
2023-05-21T17:17:14.431Z,47.89355
2023-05-21T17:19:14.569Z,48.10059
2023-05-21T17:22:41.916Z,48.25781
2023-05-21T17:24:42.119Z,49.25293
2023-05-21T17:26:41.868Z,49.09082
2023-05-21T17:28:41.899Z,48.8916
2023-05-21T17:30:41.890Z,49.12402
2023-05-21T17:32:41.871Z,48.90625
2023-05-21T17:34:41.874Z,48.78125
2023-05-21T17:37:34.452Z,48.74805
2023-05-21T17:39:34.242Z,48.41992
2023-05-21T17:41:34.233Z,48.7959
2023-05-21T17:43:34.253Z,48.50684
2023-05-21T17:45:34.364Z,48.83984
2023-05-21T17:47:34.552Z,47.99902
2023-05-21T17:49:34.276Z,48.37305
2023-05-21T17:52:37.247Z,48.15918
2023-05-21T17:54:37.087Z,48.19336
2023-05-21T17:56:37.220Z,48.40039
2023-05-21T17:58:37.180Z,49.06934
2023-05-21T18:00:37.354Z,49.35449
2023-05-21T18:02:37.254Z,50.16211
2023-05-21T18:04:37.531Z,50.64551
2023-05-21T18:08:11.869Z,51.03809
2023-05-21T18:10:11.798Z,51.63867
2023-05-21T18:12:11.660Z,51.97754
2023-05-21T18:14:11.642Z,49.71875
2023-05-21T18:16:11.885Z,51.47656
2023-05-21T18:18:11.762Z,50.8457
2023-05-21T18:20:11.759Z,52.10742
2023-05-21T18:23:10.962Z,51.39063
2023-05-21T18:25:11.055Z,52.24805
2023-05-21T18:27:11.184Z,52.52148
2023-05-21T18:29:11.015Z,53.37598
2023-05-21T18:31:10.972Z,53.22949
2023-05-21T18:33:11.123Z,53.52344
2023-05-21T18:35:15.863Z,53.99609
2023-05-21T18:38:33.674Z,55.13184
2023-05-21T18:40:33.686Z,54.2207
2023-05-21T18:42:33.595Z,54.76465
2023-05-21T18:44:33.560Z,55.49805
2023-05-21T18:46:33.664Z,54.53516
2023-05-21T18:48:33.421Z,54.06934
2023-05-21T18:50:33.546Z,52.98828
2023-05-21T18:53:36.088Z,53.0791
2023-05-21T18:55:36.272Z,52.8877
2023-05-21T18:57:36.078Z,51.61914
2023-05-21T18:59:35.945Z,51.75488
2023-05-21T19:01:36.292Z,51.21777
2023-05-21T19:03:36.293Z,51.12305
2023-05-21T19:05:36.198Z,51.67188
2023-05-21T19:08:16.222Z,52.95508
2023-05-21T19:10:16.141Z,54.01465
2023-05-21T19:12:15.928Z,52.29102
2023-05-21T19:14:15.925Z,53.40234
2023-05-21T19:16:15.943Z,55.12109
2023-05-21T19:18:15.862Z,54.95117
2023-05-21T19:20:15.897Z,53.43457
2023-05-21T19:23:52.984Z,53.2793
2023-05-21T19:25:36.863Z,53.80078
2023-05-21T19:27:36.763Z,54.45801
2023-05-21T19:29:36.885Z,55.0625
2023-05-21T19:31:36.959Z,52.16309
2023-05-21T19:33:37.006Z,53.86621
2023-05-21T19:35:36.790Z,55.07324
2023-05-21T19:38:42.707Z,55.22363
2023-05-21T19:40:42.470Z,53.73242
2023-05-21T19:42:42.198Z,55.31348
2023-05-21T19:44:42.311Z,54.95898
2023-05-21T19:46:42.307Z,55.07031
2023-05-21T19:48:42.185Z,54.88672
2023-05-21T19:50:42.381Z,54.8584
2023-05-21T19:53:34.703Z,54.99902
2023-05-21T19:55:34.887Z,54.875
2023-05-21T19:57:34.742Z,56.48535
2023-05-21T19:59:34.793Z,55.83789
2023-05-21T20:01:34.965Z,55.75
2023-05-21T20:03:34.922Z,56.00879
2023-05-21T20:05:34.750Z,56.32422
2023-05-21T20:07:34.765Z,56.39258
2023-05-21T20:08:54.482Z,56.09961
2023-05-21T20:10:54.423Z,56.125
2023-05-21T20:12:54.567Z,56.44043
2023-05-21T20:14:54.358Z,56.09961
2023-05-21T20:16:54.520Z,56.95117
2023-05-21T20:18:54.413Z,56.95801
2023-05-21T20:20:54.297Z,57.03418
2023-05-21T20:24:20.380Z,57.15723
2023-05-21T20:26:20.423Z,57.30957
2023-05-21T20:28:23.346Z,56.35156
2023-05-21T20:30:20.754Z,57.87598
2023-05-21T20:32:20.607Z,58.68945
2023-05-21T20:34:20.324Z,58.17969
2023-05-21T20:36:20.270Z,58.68457
2023-05-21T20:39:10.080Z,59.09375
2023-05-21T20:41:10.018Z,59.4502
2023-05-21T20:43:09.978Z,59.37988
2023-05-21T20:45:10.352Z,59.25684
2023-05-21T20:47:09.979Z,60.00781
2023-05-21T20:49:10.092Z,59.07031
2023-05-21T20:51:09.929Z,60.34473
2023-05-21T20:53:09.794Z,60.54688
2023-05-21T20:54:44.588Z,60.73145
2023-05-21T20:56:44.494Z,61.37305
2023-05-21T20:58:44.496Z,60.83105
2023-05-21T21:00:44.638Z,60.62305
2023-05-21T21:02:44.991Z,61.13477
2023-05-21T21:04:44.538Z,61.35742
2023-05-21T21:06:44.417Z,62.08301
2023-05-21T21:09:53.539Z,60.94531
2023-05-21T21:11:53.588Z,60.93945
2023-05-21T21:13:53.548Z,61.28906
2023-05-21T21:15:53.765Z,62.10156
2023-05-21T21:17:53.639Z,62.08594
2023-05-21T21:19:53.622Z,62.46387
2023-05-21T21:21:53.559Z,62.24805
2023-05-21T21:25:14.205Z,62
2023-05-21T21:27:14.098Z,62.15723
2023-05-21T21:29:14.205Z,62.32324
2023-05-21T21:31:14.210Z,62.07129
2023-05-21T21:33:14.313Z,62.24316
2023-05-21T21:35:14.134Z,62.28809
2023-05-21T21:37:14.179Z,62.21191
2023-05-21T21:39:43.791Z,61.76953
2023-05-21T21:41:43.810Z,61.6416
2023-05-21T21:43:43.793Z,62.19141
2023-05-21T21:45:43.870Z,62.20996
2023-05-21T21:47:43.917Z,62.83105
2023-05-21T21:49:43.777Z,62.83691
2023-05-21T21:51:43.782Z,62.14258
2023-05-21T21:53:44.052Z,62.5625
2023-05-21T21:55:18.449Z,62.28223
2023-05-21T21:57:18.455Z,62.6582
2023-05-21T21:59:18.474Z,62.44434
2023-05-21T22:01:18.538Z,62.73535
2023-05-21T22:03:18.514Z,62.52246
2023-05-21T22:05:18.535Z,63.41797
2023-05-21T22:07:18.516Z,62.95313
2023-05-21T22:10:16.510Z,63.0498
2023-05-21T22:12:16.365Z,62.33105
2023-05-21T22:14:16.386Z,62.86914
2023-05-21T22:16:16.549Z,63.08203
2023-05-21T22:18:28.387Z,62.77344
2023-05-21T22:20:16.378Z,63.61523
2023-05-21T22:22:16.442Z,63.67871
2023-05-21T22:25:54.483Z,63.1377
2023-05-21T22:27:54.501Z,63.19629
2023-05-21T22:29:54.478Z,63.24609
2023-05-21T22:31:54.515Z,63.74609
2023-05-21T22:33:54.482Z,63.49512
2023-05-21T22:35:54.872Z,63.47949
2023-05-21T22:37:54.493Z,63.57715
2023-05-21T22:41:22.290Z,64.07324
2023-05-21T22:43:22.215Z,64.34375
2023-05-21T22:45:22.294Z,64.69141
2023-05-21T22:47:22.200Z,64.12793
2023-05-21T22:49:22.304Z,64.06055
2023-05-21T22:51:22.227Z,64.88672
2023-05-21T22:53:22.285Z,64.68457
2023-05-21T22:56:12.187Z,64.41113
2023-05-21T22:58:12.168Z,64.39844
2023-05-21T23:00:12.174Z,64.63379
2023-05-21T23:02:12.598Z,65.08398
2023-05-21T23:04:12.472Z,65.29199
2023-05-21T23:06:12.193Z,65.03809
2023-05-21T23:08:12.058Z,65.43262
2023-05-21T23:10:56.646Z,65.53711
2023-05-21T23:12:56.682Z,65.54785
2023-05-21T23:14:56.634Z,65.48633
2023-05-21T23:16:56.616Z,65.26758
2023-05-21T23:18:56.719Z,65.41504
2023-05-21T23:20:56.720Z,65.11816
2023-05-21T23:22:56.640Z,65.41992
2023-05-21T23:26:17.394Z,65.0625
2023-05-21T23:28:17.502Z,65.59473
2023-05-21T23:30:17.361Z,65.7666
2023-05-21T23:32:17.379Z,65.41016
2023-05-21T23:34:17.423Z,65.67578
2023-05-21T23:36:17.414Z,66.15332
2023-05-21T23:38:17.470Z,66.28613
2023-05-21T23:42:02.264Z,66.33301
2023-05-21T23:44:02.275Z,66.05566
2023-05-21T23:46:02.425Z,66.32715
2023-05-21T23:48:02.272Z,67.02734
2023-05-21T23:50:02.227Z,66.5498
2023-05-21T23:52:02.207Z,66.93848
2023-05-21T23:54:02.323Z,66.5957
2023-05-21T23:56:52.039Z,66.83301
2023-05-21T23:58:52.031Z,66.85156
